This is the latest recevied weather packets stored in our database for station/object EW6780. If no packets are shown the sender has not sent any weather packets the latest 10 day(s).
| Time | Temp. | Humidity | Pressure | Rain* | Wind** | Luminosity | Snow |
|---|---|---|---|---|---|---|---|
| 1778256908 | 15.56° C | 42% | 1012.5 hPa | 0 mm | - | - | - |
| 1778255108 | 15° C | 41% | 1012.8 hPa | 0 mm | - | - | - |
| 1778254508 | 15.56° C | 41% | 1012.7 hPa | 0 mm | - | - | - |
| 1778254205 | 15° C | 42% | 1012.6 hPa | 0 mm | - | - | - |
| 1778253611 | 15.56° C | 42% | 1012.7 hPa | 0 mm | - | - | - |
| 1778252708 | 15.56° C | 44% | 1012.5 hPa | 0 mm | - | - | - |
| 1778252411 | 15.56° C | 44% | 1012.6 hPa | 0 mm | - | - | - |
| 1778247011 | 12.78° C | 58% | 1013 hPa | 0 mm | - | - | - |
| 1778244605 | 11.67° C | 63% | 1012.9 hPa | 0 mm | - | - | - |
| 1778242808 | 10.56° C | 69% | 1012.9 hPa | 0 mm | - | - | - |
| 1778241908 | 10.56° C | 71% | 1013.1 hPa | 0 mm | - | - | - |
| 1778241605 | 10° C | 74% | 1013.1 hPa | 0 mm | - | - | - |
| 1778241308 | 10° C | 75% | 1013.1 hPa | 0 mm | - | - | - |
| 1778241006 | 10° C | 77% | 1013.1 hPa | 0 mm | - | - | - |
| 1778239505 | 8.89° C | 80% | 1012.9 hPa | 0 mm | - | - | - |
| 1778239205 | 8.33° C | 81% | 1012.9 hPa | 0 mm | - | - | - |
| 1778238606 | 8.33° C | 81% | 1012.8 hPa | 0 mm | - | - | - |
| 1778238009 | 8.33° C | 82% | 1012.6 hPa | 0 mm | - | - | - |
| 1778237705 | 8.33° C | 82% | 1012.6 hPa | 0 mm | - | - | - |
| 1778237411 | 8.33° C | 83% | 1012.5 hPa | 0 mm | - | - | - |
| 1778236208 | 7.78° C | 84% | 1012.4 hPa | 0 mm | - | - | - |
| 1778235906 | 7.78° C | 83% | 1012.2 hPa | 0 mm | - | - | - |
| 1778235308 | 7.78° C | 82% | 1012.2 hPa | 0 mm | - | - | - |
| 1778234708 | 7.78° C | 82% | 1012.1 hPa | 0 mm | - | - | - |
| 1778234108 | 8.33° C | 81% | 1012.1 hPa | 0 mm | - | - | - |
* Rain latest hour (hover to see other rain measurements)
** Current wind speed in m/s (hover to see current wind gust speed)